createdAt,value
2022-10-05T00:03:48.102Z,14.63
2022-10-05T00:08:56.879Z,14.03
2022-10-05T00:14:07.964Z,14.73
2022-10-05T00:19:19.162Z,13.50
2022-10-05T00:24:26.970Z,12.53
2022-10-05T00:29:35.815Z,12.53
2022-10-05T00:34:43.793Z,12.33
2022-10-05T00:39:51.782Z,11.80
2022-10-05T00:45:03.624Z,12.13
2022-10-05T00:50:15.082Z,12.10
2022-10-05T00:55:26.112Z,10.37
2022-10-05T01:00:34.263Z,10.70
2022-10-05T01:05:45.333Z,10.37
2022-10-05T01:10:58.191Z,9.87
2022-10-05T01:16:10.526Z,9.93
2022-10-05T01:21:22.007Z,9.50
2022-10-05T01:26:33.208Z,8.90
2022-10-05T01:31:44.149Z,9.00
2022-10-05T01:36:55.448Z,9.80
2022-10-05T01:42:06.463Z,10.40
2022-10-05T01:47:17.482Z,10.40
2022-10-05T01:52:28.477Z,8.83
2022-10-05T02:02:54.923Z,9.37
2022-10-05T02:08:07.065Z,8.90
2022-10-05T02:13:18.089Z,8.23
2022-10-05T02:18:29.195Z,9.50
2022-10-05T02:23:39.994Z,9.47
2022-10-05T02:28:50.831Z,8.60
2022-10-05T02:34:02.349Z,7.95
2022-10-05T02:39:13.273Z,8.00
2022-10-05T02:44:24.845Z,8.77
2022-10-05T02:49:35.755Z,9.27
2022-10-05T02:54:47.410Z,10.93
2022-10-05T02:59:58.595Z,12.90
2022-10-05T03:05:09.642Z,11.87
2022-10-05T03:10:20.763Z,11.27
2022-10-05T03:15:32.015Z,13.50
2022-10-05T03:20:43.215Z,11.60
2022-10-05T03:25:54.206Z,10.13
2022-10-05T03:31:04.510Z,9.03
2022-10-05T03:36:18.101Z,8.83
2022-10-05T03:41:28.719Z,7.40
2022-10-05T03:46:40.503Z,7.30
2022-10-05T03:51:51.532Z,7.27
2022-10-05T03:57:02.637Z,7.30
2022-10-05T04:02:13.807Z,7.33
2022-10-05T04:07:24.806Z,7.23
2022-10-05T04:12:35.360Z,7.17
2022-10-05T04:17:45.981Z,6.97
2022-10-05T04:22:58.162Z,6.90
2022-10-05T04:28:09.266Z,7.77
2022-10-05T04:33:17.545Z,6.43
2022-10-05T04:38:29.344Z,6.60
2022-10-05T04:43:40.528Z,7.43
2022-10-05T04:48:52.338Z,8.37
2022-10-05T04:54:03.404Z,7.40
2022-10-05T04:59:14.398Z,6.60
2022-10-05T05:04:25.595Z,6.90
2022-10-05T05:14:55.666Z,6.83
2022-10-05T05:20:06.949Z,6.97
2022-10-05T05:25:17.962Z,6.37
2022-10-05T05:30:29.478Z,7.73
2022-10-05T05:35:41.750Z,7.47
2022-10-05T05:40:53.645Z,6.93
2022-10-05T05:46:02.981Z,7.20
2022-10-05T05:51:16.585Z,10.90
2022-10-05T05:56:28.137Z,8.80
2022-10-05T06:01:44.259Z,9.47
2022-10-05T06:06:54.259Z,9.03
2022-10-05T06:12:05.384Z,8.17
2022-10-05T06:17:16.523Z,8.80
2022-10-05T06:22:27.009Z,7.77
2022-10-05T06:27:38.072Z,8.43
2022-10-05T06:32:50.061Z,8.03
2022-10-05T06:38:00.963Z,7.83
2022-10-05T06:43:11.969Z,7.53
2022-10-05T06:48:22.997Z,7.50
2022-10-05T06:53:34.231Z,6.97
2022-10-05T06:58:46.108Z,6.37
2022-10-05T07:03:57.254Z,6.20
2022-10-05T07:09:08.497Z,7.13
2022-10-05T07:14:20.066Z,5.90
2022-10-05T07:19:30.963Z,5.47
2022-10-05T07:24:42.011Z,5.70
2022-10-05T07:29:54.878Z,4.40
2022-10-05T07:35:06.331Z,3.80
2022-10-05T07:40:18.311Z,2.97
2022-10-05T07:45:30.121Z,3.47
2022-10-05T07:50:41.123Z,2.63
2022-10-05T07:55:51.923Z,2.93
2022-10-05T08:01:03.229Z,2.40
2022-10-05T08:06:14.368Z,2.70
2022-10-05T08:11:26.179Z,2.33
2022-10-05T08:16:36.253Z,1.80
2022-10-05T08:21:46.945Z,1.73
2022-10-05T08:27:00.003Z,2.17
2022-10-05T08:32:11.019Z,2.20
2022-10-05T08:37:22.094Z,2.07
2022-10-05T08:42:33.189Z,1.70
2022-10-05T08:47:44.808Z,1.43
2022-10-05T08:52:56.614Z,1.70
2022-10-05T09:03:20.594Z,1.20
2022-10-05T09:08:31.627Z,1.30
2022-10-05T09:18:58.011Z,1.50
2022-10-05T09:24:10.440Z,1.30
2022-10-05T09:34:36.756Z,1.30
2022-10-05T09:39:49.114Z,1.80
2022-10-05T09:45:00.246Z,1.20
2022-10-05T09:50:11.491Z,1.23
2022-10-05T09:55:24.174Z,1.30
2022-10-05T10:00:35.182Z,1.43
2022-10-05T10:11:00.334Z,1.27
2022-10-05T10:16:13.488Z,1.40
2022-10-05T10:21:24.598Z,1.10
2022-10-05T10:26:36.449Z,1.10
2022-10-05T10:37:01.970Z,0.90
2022-10-05T10:47:30.126Z,0.93
2022-10-05T10:57:54.505Z,1.20
2022-10-05T11:03:08.746Z,0.97
2022-10-05T11:08:20.868Z,1.20
2022-10-05T11:13:33.314Z,1.00
2022-10-05T11:18:44.370Z,1.20
2022-10-05T11:23:55.402Z,1.27
2022-10-05T11:29:06.771Z,0.80
2022-10-05T11:34:18.684Z,0.80
2022-10-05T11:39:30.961Z,0.70
2022-10-05T11:49:59.650Z,1.13
2022-10-05T11:55:12.380Z,1.20
2022-10-05T12:00:22.486Z,1.10
2022-10-05T12:05:33.984Z,1.00
2022-10-05T12:10:45.246Z,1.10
2022-10-05T12:15:56.707Z,0.87
2022-10-05T12:21:07.293Z,0.90
2022-10-05T12:26:17.750Z,1.00
2022-10-05T12:31:29.906Z,1.20
2022-10-05T12:37:03.125Z,1.20
2022-10-05T12:41:54.347Z,1.07
2022-10-05T12:47:06.016Z,0.83
2022-10-05T12:52:17.623Z,1.20
2022-10-05T12:57:29.056Z,1.00
2022-10-05T13:02:41.239Z,0.97
2022-10-05T13:07:52.238Z,1.03
2022-10-05T13:13:04.613Z,1.03
2022-10-05T13:18:15.682Z,0.80
2022-10-05T13:23:27.637Z,0.97
2022-10-05T13:28:38.769Z,1.00
2022-10-05T13:33:49.826Z,1.00
2022-10-05T13:39:00.345Z,1.23
2022-10-05T13:49:26.672Z,0.90
2022-10-05T13:54:38.141Z,1.20
2022-10-05T13:59:49.137Z,0.90
2022-10-05T14:05:00.630Z,0.87
2022-10-05T14:10:12.257Z,1.30
2022-10-05T14:15:23.229Z,0.90
2022-10-05T14:20:34.050Z,1.00
2022-10-05T14:25:45.126Z,1.20
2022-10-05T14:30:59.046Z,1.03
2022-10-05T14:36:08.315Z,1.07
2022-10-05T14:41:19.126Z,0.93
2022-10-05T14:46:30.199Z,1.37
2022-10-05T14:51:48.828Z,1.20
2022-10-05T14:57:00.330Z,1.20
2022-10-05T15:02:13.912Z,1.00
2022-10-05T15:07:26.138Z,0.70
2022-10-05T15:12:40.728Z,1.07
2022-10-05T15:17:53.269Z,1.23
2022-10-05T15:23:04.454Z,1.50
2022-10-05T15:28:16.545Z,1.33
2022-10-05T15:33:28.039Z,1.60
2022-10-05T15:38:39.174Z,1.43
2022-10-05T15:43:50.622Z,1.33
2022-10-05T15:49:02.059Z,1.33
2022-10-05T15:54:14.665Z,1.50
2022-10-05T15:59:25.819Z,1.50
2022-10-05T16:04:37.362Z,1.60
2022-10-05T16:09:50.595Z,1.70
2022-10-05T16:20:17.492Z,2.13
2022-10-05T16:25:29.902Z,1.90
2022-10-05T16:30:41.131Z,2.13
2022-10-05T16:35:53.835Z,2.40
2022-10-05T16:41:06.209Z,2.53
2022-10-05T16:46:19.118Z,2.37
2022-10-05T16:51:32.587Z,2.73
2022-10-05T16:56:43.963Z,2.97
2022-10-05T17:01:55.439Z,3.10
2022-10-05T17:07:06.516Z,2.70
2022-10-05T17:12:17.337Z,2.60
2022-10-05T17:22:45.259Z,2.67
2022-10-05T17:27:55.816Z,3.10
2022-10-05T17:33:07.038Z,3.00
2022-10-05T17:38:19.298Z,3.27
2022-10-05T17:43:30.252Z,3.53
2022-10-05T17:48:41.319Z,3.57
2022-10-05T17:53:53.175Z,3.70
2022-10-05T17:59:02.930Z,3.60
2022-10-05T18:04:16.945Z,3.57
2022-10-05T18:14:40.910Z,3.67
2022-10-05T18:19:52.733Z,3.80
2022-10-05T18:25:05.423Z,4.97
2022-10-05T18:30:16.738Z,3.97
2022-10-05T18:35:28.130Z,4.53
2022-10-05T18:40:41.069Z,4.33
2022-10-05T18:51:04.490Z,4.43
2022-10-05T18:56:15.689Z,4.30
2022-10-05T19:01:28.387Z,4.10
2022-10-05T19:06:42.385Z,4.17
2022-10-05T19:11:52.718Z,4.27
2022-10-05T19:17:04.025Z,4.53
2022-10-05T19:22:23.422Z,3.97
2022-10-05T19:27:37.188Z,4.03
2022-10-05T19:32:48.979Z,4.60
2022-10-05T19:43:14.441Z,4.57
2022-10-05T19:48:27.829Z,4.47
2022-10-05T19:53:38.488Z,4.60
2022-10-05T19:58:46.542Z,3.43
2022-10-05T20:03:57.526Z,4.50
2022-10-05T20:09:08.599Z,4.10
2022-10-05T20:19:39.373Z,3.90
2022-10-05T20:24:55.142Z,4.20
2022-10-05T20:30:03.138Z,5.23
2022-10-05T20:35:12.414Z,4.50
2022-10-05T20:40:21.363Z,4.10
2022-10-05T20:45:29.291Z,4.87
2022-10-05T20:50:37.765Z,6.17
2022-10-05T20:55:45.658Z,6.43
2022-10-05T21:00:55.343Z,7.20
2022-10-05T21:06:03.342Z,6.20
2022-10-05T21:11:11.438Z,6.00
2022-10-05T21:16:24.514Z,5.83
2022-10-05T21:21:30.970Z,5.00
2022-10-05T21:26:38.835Z,4.93
2022-10-05T21:31:47.251Z,5.93
2022-10-05T21:36:56.708Z,6.53
2022-10-05T21:42:04.709Z,5.93
2022-10-05T21:47:13.078Z,6.30
2022-10-05T21:52:21.787Z,4.70
2022-10-05T21:57:30.312Z,6.70
2022-10-05T22:02:38.537Z,7.63
2022-10-05T22:07:46.706Z,7.23
2022-10-05T22:12:55.248Z,6.33
2022-10-05T22:18:03.469Z,5.47
2022-10-05T22:23:12.470Z,6.53
2022-10-05T22:28:20.502Z,5.50
2022-10-05T22:33:28.886Z,7.43
2022-10-05T22:38:36.695Z,7.33
2022-10-05T22:43:44.828Z,6.50
2022-10-05T22:48:52.716Z,6.17
2022-10-05T22:54:00.557Z,5.90
2022-10-05T22:59:09.101Z,4.90
2022-10-05T23:04:17.745Z,4.43
2022-10-05T23:09:25.722Z,4.90
2022-10-05T23:14:34.137Z,4.20
2022-10-05T23:19:42.180Z,3.60
2022-10-05T23:24:51.106Z,4.70
2022-10-05T23:29:58.910Z,4.27
2022-10-05T23:35:08.302Z,4.30
2022-10-05T23:40:16.311Z,4.37
2022-10-05T23:45:24.463Z,4.57
2022-10-05T23:50:33.645Z,4.20
2022-10-05T23:55:41.502Z,4.13
